sensor_id;sensor_type;location;lat;lon;timestamp;temperature;humidity
16408;DHT22;8313;49.894;8.084;2022-07-03T00:01:47;22.30;74.60
16408;DHT22;8313;49.894;8.084;2022-07-03T00:04:12;22.30;74.40
16408;DHT22;8313;49.894;8.084;2022-07-03T00:06:38;22.20;74.40
16408;DHT22;8313;49.894;8.084;2022-07-03T00:09:04;22.20;74.60
16408;DHT22;8313;49.894;8.084;2022-07-03T00:11:31;22.20;74.60
16408;DHT22;8313;49.894;8.084;2022-07-03T00:13:57;22.10;74.60
16408;DHT22;8313;49.894;8.084;2022-07-03T00:16:22;22.10;74.80
16408;DHT22;8313;49.894;8.084;2022-07-03T00:18:48;22.10;74.80
16408;DHT22;8313;49.894;8.084;2022-07-03T00:21:28;22.10;74.80
16408;DHT22;8313;49.894;8.084;2022-07-03T00:24:24;22.00;74.90
16408;DHT22;8313;49.894;8.084;2022-07-03T00:26:51;22.00;75.10
16408;DHT22;8313;49.894;8.084;2022-07-03T00:29:21;21.90;75.00
16408;DHT22;8313;49.894;8.084;2022-07-03T00:31:48;21.90;75.20
16408;DHT22;8313;49.894;8.084;2022-07-03T00:34:15;21.90;75.30
16408;DHT22;8313;49.894;8.084;2022-07-03T00:36:42;21.90;75.40
16408;DHT22;8313;49.894;8.084;2022-07-03T00:39:10;21.80;75.70
16408;DHT22;8313;49.894;8.084;2022-07-03T00:41:36;21.70;75.90
16408;DHT22;8313;49.894;8.084;2022-07-03T00:44:03;21.70;76.40
16408;DHT22;8313;49.894;8.084;2022-07-03T00:46:29;21.70;76.30
16408;DHT22;8313;49.894;8.084;2022-07-03T00:48:57;21.60;76.60
16408;DHT22;8313;49.894;8.084;2022-07-03T00:51:26;21.50;76.80
16408;DHT22;8313;49.894;8.084;2022-07-03T00:53:53;21.50;77.40
16408;DHT22;8313;49.894;8.084;2022-07-03T00:56:23;21.30;77.30
16408;DHT22;8313;49.894;8.084;2022-07-03T00:58:53;21.30;78.20
16408;DHT22;8313;49.894;8.084;2022-07-03T01:01:20;21.30;78.10
16408;DHT22;8313;49.894;8.084;2022-07-03T01:03:49;21.30;77.90
16408;DHT22;8313;49.894;8.084;2022-07-03T01:06:20;21.10;78.00
16408;DHT22;8313;49.894;8.084;2022-07-03T01:08:51;21.20;78.20
16408;DHT22;8313;49.894;8.084;2022-07-03T01:16:38;20.90;79.20
16408;DHT22;8313;49.894;8.084;2022-07-03T01:27:08;21.00;78.80
16408;DHT22;8313;49.894;8.084;2022-07-03T01:32:24;21.00;78.70
16408;DHT22;8313;49.894;8.084;2022-07-03T01:34:53;21.00;78.60
16408;DHT22;8313;49.894;8.084;2022-07-03T01:37:22;21.00;78.60
16408;DHT22;8313;49.894;8.084;2022-07-03T01:39:52;20.90;78.40
16408;DHT22;8313;49.894;8.084;2022-07-03T01:42:18;20.90;78.90
16408;DHT22;8313;49.894;8.084;2022-07-03T01:44:47;20.80;78.90
16408;DHT22;8313;49.894;8.084;2022-07-03T01:47:14;20.70;79.40
16408;DHT22;8313;49.894;8.084;2022-07-03T01:49:41;20.60;79.40
16408;DHT22;8313;49.894;8.084;2022-07-03T01:52:09;20.60;79.60
16408;DHT22;8313;49.894;8.084;2022-07-03T01:54:39;20.70;79.50
16408;DHT22;8313;49.894;8.084;2022-07-03T01:57:08;20.60;79.70
16408;DHT22;8313;49.894;8.084;2022-07-03T01:59:34;20.50;79.70
16408;DHT22;8313;49.894;8.084;2022-07-03T02:02:09;20.50;80.20
16408;DHT22;8313;49.894;8.084;2022-07-03T02:10:39;20.50;80.10
16408;DHT22;8313;49.894;8.084;2022-07-03T02:13:19;20.50;79.80
16408;DHT22;8313;49.894;8.084;2022-07-03T02:15:50;20.50;79.70
16408;DHT22;8313;49.894;8.084;2022-07-03T02:20:53;20.30;79.60
16408;DHT22;8313;49.894;8.084;2022-07-03T02:23:24;20.20;80.00
16408;DHT22;8313;49.894;8.084;2022-07-03T02:25:53;20.20;80.20
16408;DHT22;8313;49.894;8.084;2022-07-03T02:28:48;20.30;80.20
16408;DHT22;8313;49.894;8.084;2022-07-03T02:31:16;20.30;80.30
16408;DHT22;8313;49.894;8.084;2022-07-03T02:33:44;20.20;80.10
16408;DHT22;8313;49.894;8.084;2022-07-03T02:36:14;20.20;80.10
16408;DHT22;8313;49.894;8.084;2022-07-03T02:38:43;20.20;80.20
16408;DHT22;8313;49.894;8.084;2022-07-03T02:41:15;20.20;80.30
16408;DHT22;8313;49.894;8.084;2022-07-03T02:43:59;20.20;80.30
16408;DHT22;8313;49.894;8.084;2022-07-03T02:46:34;20.20;80.40
16408;DHT22;8313;49.894;8.084;2022-07-03T02:54:47;20.10;80.40
16408;DHT22;8313;49.894;8.084;2022-07-03T02:57:17;20.10;80.50
16408;DHT22;8313;49.894;8.084;2022-07-03T03:00:00;20.10;80.50
16408;DHT22;8313;49.894;8.084;2022-07-03T03:11:00;20.00;80.90
16408;DHT22;8313;49.894;8.084;2022-07-03T03:13:30;20.00;81.00
16408;DHT22;8313;49.894;8.084;2022-07-03T03:16:08;19.90;81.00
16408;DHT22;8313;49.894;8.084;2022-07-03T03:18:36;19.90;81.20
16408;DHT22;8313;49.894;8.084;2022-07-03T03:21:03;19.90;81.10
16408;DHT22;8313;49.894;8.084;2022-07-03T03:26:04;19.80;81.90
16408;DHT22;8313;49.894;8.084;2022-07-03T03:28:30;19.80;81.30
16408;DHT22;8313;49.894;8.084;2022-07-03T03:30:56;19.80;81.40
16408;DHT22;8313;49.894;8.084;2022-07-03T03:33:22;19.70;81.20
16408;DHT22;8313;49.894;8.084;2022-07-03T03:35:48;19.70;81.50
16408;DHT22;8313;49.894;8.084;2022-07-03T03:38:14;19.70;81.60
16408;DHT22;8313;49.894;8.084;2022-07-03T03:40:40;19.60;81.50
16408;DHT22;8313;49.894;8.084;2022-07-03T03:43:06;19.60;81.60
16408;DHT22;8313;49.894;8.084;2022-07-03T03:45:32;19.60;81.70
16408;DHT22;8313;49.894;8.084;2022-07-03T03:47:58;19.60;81.90
16408;DHT22;8313;49.894;8.084;2022-07-03T03:50:24;19.60;82.10
16408;DHT22;8313;49.894;8.084;2022-07-03T03:52:50;19.60;81.90
16408;DHT22;8313;49.894;8.084;2022-07-03T03:55:15;19.60;82.20
16408;DHT22;8313;49.894;8.084;2022-07-03T03:57:41;19.50;81.70
16408;DHT22;8313;49.894;8.084;2022-07-03T04:00:07;19.50;82.60
16408;DHT22;8313;49.894;8.084;2022-07-03T04:02:39;19.50;82.70
16408;DHT22;8313;49.894;8.084;2022-07-03T04:05:05;19.50;83.40
16408;DHT22;8313;49.894;8.084;2022-07-03T04:07:31;19.40;83.00
16408;DHT22;8313;49.894;8.084;2022-07-03T04:09:56;19.40;82.90
16408;DHT22;8313;49.894;8.084;2022-07-03T04:12:22;19.50;83.30
16408;DHT22;8313;49.894;8.084;2022-07-03T04:14:48;19.50;83.10
16408;DHT22;8313;49.894;8.084;2022-07-03T04:17:14;19.50;82.90
16408;DHT22;8313;49.894;8.084;2022-07-03T04:19:40;19.50;83.10
16408;DHT22;8313;49.894;8.084;2022-07-03T04:22:06;19.50;83.10
16408;DHT22;8313;49.894;8.084;2022-07-03T04:24:37;19.50;83.10
16408;DHT22;8313;49.894;8.084;2022-07-03T04:27:04;19.50;83.30
16408;DHT22;8313;49.894;8.084;2022-07-03T04:29:30;19.50;83.30
16408;DHT22;8313;49.894;8.084;2022-07-03T04:31:55;19.50;83.80
16408;DHT22;8313;49.894;8.084;2022-07-03T04:34:21;19.40;84.30
16408;DHT22;8313;49.894;8.084;2022-07-03T04:36:47;19.40;84.10
16408;DHT22;8313;49.894;8.084;2022-07-03T04:39:12;19.40;84.10
16408;DHT22;8313;49.894;8.084;2022-07-03T04:41:38;19.50;84.10
16408;DHT22;8313;49.894;8.084;2022-07-03T04:44:04;19.50;84.70
16408;DHT22;8313;49.894;8.084;2022-07-03T04:46:29;19.50;85.40
16408;DHT22;8313;49.894;8.084;2022-07-03T04:48:55;19.50;84.80
16408;DHT22;8313;49.894;8.084;2022-07-03T04:51:21;19.50;84.60
16408;DHT22;8313;49.894;8.084;2022-07-03T04:53:46;19.50;84.90
16408;DHT22;8313;49.894;8.084;2022-07-03T04:56:12;19.60;84.70
16408;DHT22;8313;49.894;8.084;2022-07-03T04:58:38;19.60;85.80
16408;DHT22;8313;49.894;8.084;2022-07-03T05:01:03;19.60;86.00
16408;DHT22;8313;49.894;8.084;2022-07-03T05:03:29;19.70;86.10
16408;DHT22;8313;49.894;8.084;2022-07-03T05:05:55;19.70;86.20
16408;DHT22;8313;49.894;8.084;2022-07-03T05:08:20;19.70;85.90
16408;DHT22;8313;49.894;8.084;2022-07-03T05:10:46;19.70;86.70
16408;DHT22;8313;49.894;8.084;2022-07-03T05:13:12;19.80;86.70
16408;DHT22;8313;49.894;8.084;2022-07-03T05:15:38;19.80;86.20
16408;DHT22;8313;49.894;8.084;2022-07-03T05:18:03;19.90;87.20
16408;DHT22;8313;49.894;8.084;2022-07-03T05:20:29;19.90;87.30
16408;DHT22;8313;49.894;8.084;2022-07-03T05:25:21;19.90;87.20
16408;DHT22;8313;49.894;8.084;2022-07-03T05:27:48;20.00;87.00
16408;DHT22;8313;49.894;8.084;2022-07-03T05:30:15;20.00;86.70
16408;DHT22;8313;49.894;8.084;2022-07-03T05:32:41;20.00;87.20
16408;DHT22;8313;49.894;8.084;2022-07-03T05:35:07;20.10;87.30
16408;DHT22;8313;49.894;8.084;2022-07-03T05:37:33;20.10;88.70
16408;DHT22;8313;49.894;8.084;2022-07-03T05:39:59;20.20;88.30
16408;DHT22;8313;49.894;8.084;2022-07-03T05:42:25;20.20;87.60
16408;DHT22;8313;49.894;8.084;2022-07-03T05:44:50;20.20;88.30
16408;DHT22;8313;49.894;8.084;2022-07-03T05:47:16;20.30;89.00
16408;DHT22;8313;49.894;8.084;2022-07-03T05:49:42;20.30;88.30
16408;DHT22;8313;49.894;8.084;2022-07-03T05:52:08;20.30;88.50
16408;DHT22;8313;49.894;8.084;2022-07-03T05:54:33;20.40;88.70
16408;DHT22;8313;49.894;8.084;2022-07-03T05:56:59;20.40;88.80
16408;DHT22;8313;49.894;8.084;2022-07-03T05:59:25;20.50;90.00
16408;DHT22;8313;49.894;8.084;2022-07-03T06:01:50;20.50;89.20
16408;DHT22;8313;49.894;8.084;2022-07-03T06:04:16;20.60;89.60
16408;DHT22;8313;49.894;8.084;2022-07-03T06:06:42;20.60;89.40
16408;DHT22;8313;49.894;8.084;2022-07-03T06:09:08;20.70;89.00
16408;DHT22;8313;49.894;8.084;2022-07-03T06:11:33;20.70;89.20
16408;DHT22;8313;49.894;8.084;2022-07-03T06:13:59;20.70;89.10
16408;DHT22;8313;49.894;8.084;2022-07-03T06:16:25;20.80;89.00
16408;DHT22;8313;49.894;8.084;2022-07-03T06:18:50;20.80;88.80
16408;DHT22;8313;49.894;8.084;2022-07-03T06:21:16;20.90;89.80
16408;DHT22;8313;49.894;8.084;2022-07-03T06:23:42;20.90;88.50
16408;DHT22;8313;49.894;8.084;2022-07-03T06:26:08;20.90;90.00
16408;DHT22;8313;49.894;8.084;2022-07-03T06:28:33;21.00;90.00
16408;DHT22;8313;49.894;8.084;2022-07-03T06:30:59;21.00;89.70
16408;DHT22;8313;49.894;8.084;2022-07-03T06:33:25;21.10;89.60
16408;DHT22;8313;49.894;8.084;2022-07-03T06:35:51;21.10;89.40
16408;DHT22;8313;49.894;8.084;2022-07-03T06:38:16;21.10;89.50
16408;DHT22;8313;49.894;8.084;2022-07-03T06:40:42;21.10;89.50
16408;DHT22;8313;49.894;8.084;2022-07-03T06:43:08;21.20;89.60
16408;DHT22;8313;49.894;8.084;2022-07-03T06:45:33;21.20;89.50
16408;DHT22;8313;49.894;8.084;2022-07-03T06:47:59;21.20;89.30
16408;DHT22;8313;49.894;8.084;2022-07-03T06:50:25;21.20;89.20
16408;DHT22;8313;49.894;8.084;2022-07-03T06:52:51;21.30;89.30
16408;DHT22;8313;49.894;8.084;2022-07-03T06:55:16;21.40;89.80
16408;DHT22;8313;49.894;8.084;2022-07-03T06:57:42;21.50;89.70
16408;DHT22;8313;49.894;8.084;2022-07-03T07:00:08;21.50;89.20
16408;DHT22;8313;49.894;8.084;2022-07-03T07:02:34;21.60;89.60
16408;DHT22;8313;49.894;8.084;2022-07-03T07:05:00;21.60;89.40
16408;DHT22;8313;49.894;8.084;2022-07-03T07:07:26;21.70;89.80
16408;DHT22;8313;49.894;8.084;2022-07-03T07:09:51;21.70;89.60
16408;DHT22;8313;49.894;8.084;2022-07-03T07:12:17;21.80;89.70
16408;DHT22;8313;49.894;8.084;2022-07-03T07:14:43;21.80;89.60
16408;DHT22;8313;49.894;8.084;2022-07-03T07:17:09;21.90;89.80
16408;DHT22;8313;49.894;8.084;2022-07-03T07:19:34;22.00;90.00
16408;DHT22;8313;49.894;8.084;2022-07-03T07:22:00;22.10;90.00
16408;DHT22;8313;49.894;8.084;2022-07-03T07:24:29;22.10;90.30
16408;DHT22;8313;49.894;8.084;2022-07-03T07:26:55;22.20;90.00
16408;DHT22;8313;49.894;8.084;2022-07-03T07:29:20;22.30;90.20
16408;DHT22;8313;49.894;8.084;2022-07-03T07:31:46;22.40;90.20
16408;DHT22;8313;49.894;8.084;2022-07-03T07:34:12;22.50;90.00
16408;DHT22;8313;49.894;8.084;2022-07-03T07:36:39;22.50;90.00
16408;DHT22;8313;49.894;8.084;2022-07-03T07:39:05;22.70;89.80
16408;DHT22;8313;49.894;8.084;2022-07-03T07:41:31;22.70;90.20
16408;DHT22;8313;49.894;8.084;2022-07-03T07:43:56;22.70;90.00
16408;DHT22;8313;49.894;8.084;2022-07-03T07:46:23;22.80;90.00
16408;DHT22;8313;49.894;8.084;2022-07-03T07:48:49;22.90;90.20
16408;DHT22;8313;49.894;8.084;2022-07-03T07:51:14;22.90;90.20
16408;DHT22;8313;49.894;8.084;2022-07-03T07:53:40;23.10;90.30
16408;DHT22;8313;49.894;8.084;2022-07-03T07:56:06;23.20;90.10
16408;DHT22;8313;49.894;8.084;2022-07-03T07:58:31;23.20;90.00
16408;DHT22;8313;49.894;8.084;2022-07-03T08:00:57;23.40;90.20
16408;DHT22;8313;49.894;8.084;2022-07-03T08:03:41;23.40;90.00
16408;DHT22;8313;49.894;8.084;2022-07-03T08:06:25;23.60;90.00
16408;DHT22;8313;49.894;8.084;2022-07-03T08:08:51;23.70;89.40
16408;DHT22;8313;49.894;8.084;2022-07-03T08:11:17;23.70;89.40
16408;DHT22;8313;49.894;8.084;2022-07-03T08:13:42;23.90;89.20
16408;DHT22;8313;49.894;8.084;2022-07-03T08:16:09;23.90;89.50
16408;DHT22;8313;49.894;8.084;2022-07-03T08:18:35;24.10;89.90
16408;DHT22;8313;49.894;8.084;2022-07-03T08:21:01;24.20;89.80
16408;DHT22;8313;49.894;8.084;2022-07-03T08:23:26;24.30;88.80
16408;DHT22;8313;49.894;8.084;2022-07-03T08:25:52;24.40;88.90
16408;DHT22;8313;49.894;8.084;2022-07-03T08:28:18;24.40;88.80
16408;DHT22;8313;49.894;8.084;2022-07-03T08:30:45;24.50;88.60
16408;DHT22;8313;49.894;8.084;2022-07-03T08:33:10;24.60;87.70
16408;DHT22;8313;49.894;8.084;2022-07-03T08:35:36;24.70;88.30
16408;DHT22;8313;49.894;8.084;2022-07-03T08:38:02;24.80;87.80
16408;DHT22;8313;49.894;8.084;2022-07-03T08:40:28;24.90;87.40
16408;DHT22;8313;49.894;8.084;2022-07-03T08:42:57;25.00;88.20
16408;DHT22;8313;49.894;8.084;2022-07-03T08:45:24;25.10;86.40
16408;DHT22;8313;49.894;8.084;2022-07-03T08:47:52;25.10;87.10
16408;DHT22;8313;49.894;8.084;2022-07-03T08:50:19;25.30;86.00
16408;DHT22;8313;49.894;8.084;2022-07-03T08:52:46;25.40;86.90
16408;DHT22;8313;49.894;8.084;2022-07-03T08:55:13;25.40;85.80
16408;DHT22;8313;49.894;8.084;2022-07-03T08:57:40;25.60;86.50
16408;DHT22;8313;49.894;8.084;2022-07-03T09:00:18;25.80;84.60
16408;DHT22;8313;49.894;8.084;2022-07-03T09:02:46;25.90;83.50
16408;DHT22;8313;49.894;8.084;2022-07-03T09:05:14;26.00;81.90
16408;DHT22;8313;49.894;8.084;2022-07-03T09:07:42;26.00;82.40
16408;DHT22;8313;49.894;8.084;2022-07-03T09:10:10;26.10;81.00
16408;DHT22;8313;49.894;8.084;2022-07-03T09:12:36;26.20;80.30
16408;DHT22;8313;49.894;8.084;2022-07-03T09:15:04;26.30;78.90
16408;DHT22;8313;49.894;8.084;2022-07-03T09:17:31;26.30;79.60
16408;DHT22;8313;49.894;8.084;2022-07-03T09:20:04;26.40;77.80
16408;DHT22;8313;49.894;8.084;2022-07-03T09:22:33;26.50;77.70
16408;DHT22;8313;49.894;8.084;2022-07-03T09:25:10;26.70;78.10
16408;DHT22;8313;49.894;8.084;2022-07-03T09:27:37;26.80;78.00
16408;DHT22;8313;49.894;8.084;2022-07-03T09:30:06;26.90;77.20
16408;DHT22;8313;49.894;8.084;2022-07-03T09:37:36;27.20;74.30
16408;DHT22;8313;49.894;8.084;2022-07-03T09:40:02;27.20;73.60
16408;DHT22;8313;49.894;8.084;2022-07-03T09:42:28;27.50;71.20
16408;DHT22;8313;49.894;8.084;2022-07-03T09:44:54;27.70;71.30
16408;DHT22;8313;49.894;8.084;2022-07-03T09:47:22;27.80;69.40
16408;DHT22;8313;49.894;8.084;2022-07-03T09:50:01;28.00;70.00
16408;DHT22;8313;49.894;8.084;2022-07-03T09:52:36;28.20;67.90
16408;DHT22;8313;49.894;8.084;2022-07-03T09:57:35;28.50;65.30
16408;DHT22;8313;49.894;8.084;2022-07-03T10:05:40;28.80;64.20
16408;DHT22;8313;49.894;8.084;2022-07-03T10:08:07;28.80;65.90
16408;DHT22;8313;49.894;8.084;2022-07-03T10:10:35;28.90;66.80
16408;DHT22;8313;49.894;8.084;2022-07-03T10:13:02;28.90;67.30
16408;DHT22;8313;49.894;8.084;2022-07-03T10:15:30;28.90;67.00
16408;DHT22;8313;49.894;8.084;2022-07-03T10:17:57;29.00;68.10
16408;DHT22;8313;49.894;8.084;2022-07-03T10:20:30;29.10;67.90
16408;DHT22;8313;49.894;8.084;2022-07-03T10:22:56;29.30;67.70
16408;DHT22;8313;49.894;8.084;2022-07-03T10:25:22;29.40;67.70
16408;DHT22;8313;49.894;8.084;2022-07-03T10:27:49;29.40;67.50
16408;DHT22;8313;49.894;8.084;2022-07-03T10:30:17;29.60;66.40
16408;DHT22;8313;49.894;8.084;2022-07-03T10:32:50;29.60;66.40
16408;DHT22;8313;49.894;8.084;2022-07-03T10:35:25;29.80;66.90
16408;DHT22;8313;49.894;8.084;2022-07-03T10:38:12;29.80;66.90
16408;DHT22;8313;49.894;8.084;2022-07-03T10:43:36;30.00;64.50
16408;DHT22;8313;49.894;8.084;2022-07-03T10:46:22;30.00;64.60
16408;DHT22;8313;49.894;8.084;2022-07-03T10:51:18;30.30;65.60
16408;DHT22;8313;49.894;8.084;2022-07-03T10:53:43;30.40;65.30
16408;DHT22;8313;49.894;8.084;2022-07-03T10:56:09;30.50;64.30
16408;DHT22;8313;49.894;8.084;2022-07-03T10:58:57;30.50;64.60
16408;DHT22;8313;49.894;8.084;2022-07-03T11:01:29;30.60;65.30
16408;DHT22;8313;49.894;8.084;2022-07-03T11:04:00;30.50;64.90
16408;DHT22;8313;49.894;8.084;2022-07-03T11:09:14;30.60;65.50
16408;DHT22;8313;49.894;8.084;2022-07-03T11:11:43;30.60;65.80
16408;DHT22;8313;49.894;8.084;2022-07-03T11:14:22;30.60;65.30
16408;DHT22;8313;49.894;8.084;2022-07-03T11:16:48;30.60;64.10
16408;DHT22;8313;49.894;8.084;2022-07-03T11:19:15;30.70;65.00
16408;DHT22;8313;49.894;8.084;2022-07-03T11:21:47;30.80;64.40
16408;DHT22;8313;49.894;8.084;2022-07-03T11:26:44;31.10;63.90
16408;DHT22;8313;49.894;8.084;2022-07-03T11:29:27;31.20;61.80
16408;DHT22;8313;49.894;8.084;2022-07-03T11:31:53;31.30;60.90
16408;DHT22;8313;49.894;8.084;2022-07-03T11:34:21;31.40;61.90
16408;DHT22;8313;49.894;8.084;2022-07-03T11:36:47;31.50;61.60
16408;DHT22;8313;49.894;8.084;2022-07-03T11:39:13;31.50;61.30
16408;DHT22;8313;49.894;8.084;2022-07-03T11:44:07;31.70;60.90
16408;DHT22;8313;49.894;8.084;2022-07-03T11:46:34;31.60;59.60
16408;DHT22;8313;49.894;8.084;2022-07-03T11:49:11;31.60;61.20
16408;DHT22;8313;49.894;8.084;2022-07-03T11:51:39;31.70;60.50
16408;DHT22;8313;49.894;8.084;2022-07-03T11:54:05;32.00;61.70
16408;DHT22;8313;49.894;8.084;2022-07-03T11:56:32;32.20;61.00
16408;DHT22;8313;49.894;8.084;2022-07-03T11:58:59;32.30;59.70
16408;DHT22;8313;49.894;8.084;2022-07-03T12:04:20;32.50;59.30
16408;DHT22;8313;49.894;8.084;2022-07-03T12:06:56;32.50;58.10
16408;DHT22;8313;49.894;8.084;2022-07-03T12:09:27;32.60;58.80
16408;DHT22;8313;49.894;8.084;2022-07-03T12:14:49;32.70;58.60
16408;DHT22;8313;49.894;8.084;2022-07-03T12:17:23;32.70;57.90
16408;DHT22;8313;49.894;8.084;2022-07-03T12:25:12;32.70;58.10
16408;DHT22;8313;49.894;8.084;2022-07-03T12:27:40;32.80;58.50
16408;DHT22;8313;49.894;8.084;2022-07-03T12:30:08;32.90;57.60
16408;DHT22;8313;49.894;8.084;2022-07-03T12:32:35;32.80;58.20
16408;DHT22;8313;49.894;8.084;2022-07-03T12:35:02;32.80;58.00
16408;DHT22;8313;49.894;8.084;2022-07-03T12:37:41;32.90;58.00
16408;DHT22;8313;49.894;8.084;2022-07-03T12:40:11;32.80;57.80
16408;DHT22;8313;49.894;8.084;2022-07-03T12:42:51;32.80;58.10
16408;DHT22;8313;49.894;8.084;2022-07-03T12:45:19;32.80;57.20
16408;DHT22;8313;49.894;8.084;2022-07-03T12:47:45;32.80;57.10
16408;DHT22;8313;49.894;8.084;2022-07-03T12:50:11;32.90;57.00
16408;DHT22;8313;49.894;8.084;2022-07-03T12:52:55;33.10;57.00
16408;DHT22;8313;49.894;8.084;2022-07-03T12:55:23;33.30;55.90
16408;DHT22;8313;49.894;8.084;2022-07-03T12:57:49;33.40;55.50
16408;DHT22;8313;49.894;8.084;2022-07-03T13:00:42;33.50;55.20
16408;DHT22;8313;49.894;8.084;2022-07-03T13:05:53;33.60;55.10
16408;DHT22;8313;49.894;8.084;2022-07-03T13:08:19;33.60;55.00
16408;DHT22;8313;49.894;8.084;2022-07-03T13:10:57;33.60;55.10
16408;DHT22;8313;49.894;8.084;2022-07-03T13:13:23;33.70;55.60
16408;DHT22;8313;49.894;8.084;2022-07-03T13:15:49;33.70;55.90
16408;DHT22;8313;49.894;8.084;2022-07-03T13:18:15;33.80;55.50
16408;DHT22;8313;49.894;8.084;2022-07-03T13:20:40;33.70;55.80
16408;DHT22;8313;49.894;8.084;2022-07-03T13:23:06;33.70;54.90
16408;DHT22;8313;49.894;8.084;2022-07-03T13:25:35;33.80;55.00
16408;DHT22;8313;49.894;8.084;2022-07-03T13:30:31;33.70;55.50
16408;DHT22;8313;49.894;8.084;2022-07-03T13:32:57;33.90;54.60
16408;DHT22;8313;49.894;8.084;2022-07-03T13:35:22;33.80;54.50
16408;DHT22;8313;49.894;8.084;2022-07-03T13:37:48;33.80;55.10
16408;DHT22;8313;49.894;8.084;2022-07-03T13:40:13;33.70;54.70
16408;DHT22;8313;49.894;8.084;2022-07-03T13:42:39;33.60;54.60
16408;DHT22;8313;49.894;8.084;2022-07-03T13:45:05;33.70;54.90
16408;DHT22;8313;49.894;8.084;2022-07-03T13:47:31;33.80;54.10
16408;DHT22;8313;49.894;8.084;2022-07-03T13:49:57;33.80;54.40
16408;DHT22;8313;49.894;8.084;2022-07-03T13:52:23;33.90;53.60
16408;DHT22;8313;49.894;8.084;2022-07-03T13:54:48;33.90;52.70
16408;DHT22;8313;49.894;8.084;2022-07-03T13:57:14;33.80;53.10
16408;DHT22;8313;49.894;8.084;2022-07-03T13:59:40;33.80;53.10
16408;DHT22;8313;49.894;8.084;2022-07-03T14:02:06;33.80;53.70
16408;DHT22;8313;49.894;8.084;2022-07-03T14:04:32;33.90;53.40
16408;DHT22;8313;49.894;8.084;2022-07-03T14:06:58;34.00;52.90
16408;DHT22;8313;49.894;8.084;2022-07-03T14:09:24;34.10;52.30
16408;DHT22;8313;49.894;8.084;2022-07-03T14:11:51;34.20;52.60
16408;DHT22;8313;49.894;8.084;2022-07-03T14:14:16;34.20;53.10
16408;DHT22;8313;49.894;8.084;2022-07-03T14:16:42;34.20;52.20
16408;DHT22;8313;49.894;8.084;2022-07-03T14:19:08;34.20;51.50
16408;DHT22;8313;49.894;8.084;2022-07-03T14:21:34;34.20;51.50
16408;DHT22;8313;49.894;8.084;2022-07-03T14:24:00;34.20;51.70
16408;DHT22;8313;49.894;8.084;2022-07-03T14:26:26;34.10;50.70
16408;DHT22;8313;49.894;8.084;2022-07-03T14:29:10;34.20;51.20
16408;DHT22;8313;49.894;8.084;2022-07-03T14:31:55;34.20;50.80
16408;DHT22;8313;49.894;8.084;2022-07-03T14:34:40;34.20;50.50
16408;DHT22;8313;49.894;8.084;2022-07-03T14:37:06;34.10;50.50
16408;DHT22;8313;49.894;8.084;2022-07-03T14:39:32;34.10;50.30
16408;DHT22;8313;49.894;8.084;2022-07-03T14:41:58;33.80;50.40
16408;DHT22;8313;49.894;8.084;2022-07-03T14:44:24;33.80;51.40
16408;DHT22;8313;49.894;8.084;2022-07-03T14:46:52;33.90;51.10
16408;DHT22;8313;49.894;8.084;2022-07-03T14:49:18;33.90;50.80
16408;DHT22;8313;49.894;8.084;2022-07-03T14:51:44;33.90;50.90
16408;DHT22;8313;49.894;8.084;2022-07-03T14:54:10;33.80;50.10
16408;DHT22;8313;49.894;8.084;2022-07-03T14:56:40;33.80;50.50
16408;DHT22;8313;49.894;8.084;2022-07-03T14:59:09;33.80;50.40
16408;DHT22;8313;49.894;8.084;2022-07-03T15:01:36;33.80;50.30
16408;DHT22;8313;49.894;8.084;2022-07-03T15:04:11;33.80;50.30
16408;DHT22;8313;49.894;8.084;2022-07-03T15:06:39;33.80;50.40
16408;DHT22;8313;49.894;8.084;2022-07-03T15:09:04;33.80;50.00
16408;DHT22;8313;49.894;8.084;2022-07-03T15:11:40;33.60;49.80
16408;DHT22;8313;49.894;8.084;2022-07-03T15:14:32;33.60;49.80
16408;DHT22;8313;49.894;8.084;2022-07-03T15:16:59;33.60;50.40
16408;DHT22;8313;49.894;8.084;2022-07-03T15:19:26;33.50;49.80
16408;DHT22;8313;49.894;8.084;2022-07-03T15:21:53;33.50;50.10
16408;DHT22;8313;49.894;8.084;2022-07-03T15:24:20;33.50;50.20
16408;DHT22;8313;49.894;8.084;2022-07-03T15:26:52;33.50;49.90
16408;DHT22;8313;49.894;8.084;2022-07-03T15:29:19;33.60;50.20
16408;DHT22;8313;49.894;8.084;2022-07-03T15:31:46;33.60;50.00
16408;DHT22;8313;49.894;8.084;2022-07-03T15:34:12;33.50;49.70
16408;DHT22;8313;49.894;8.084;2022-07-03T15:36:50;33.30;49.60
16408;DHT22;8313;49.894;8.084;2022-07-03T15:39:25;33.30;50.00
16408;DHT22;8313;49.894;8.084;2022-07-03T15:42:01;33.30;49.90
16408;DHT22;8313;49.894;8.084;2022-07-03T15:50:40;33.20;50.10
16408;DHT22;8313;49.894;8.084;2022-07-03T15:53:10;33.10;49.50
16408;DHT22;8313;49.894;8.084;2022-07-03T15:55:40;33.00;49.70
16408;DHT22;8313;49.894;8.084;2022-07-03T15:58:07;33.00;49.60
16408;DHT22;8313;49.894;8.084;2022-07-03T16:00:36;32.90;49.70
16408;DHT22;8313;49.894;8.084;2022-07-03T16:03:09;32.90;49.80
16408;DHT22;8313;49.894;8.084;2022-07-03T16:05:36;32.80;49.40
16408;DHT22;8313;49.894;8.084;2022-07-03T16:08:06;32.70;49.70
16408;DHT22;8313;49.894;8.084;2022-07-03T16:10:34;32.60;50.00
16408;DHT22;8313;49.894;8.084;2022-07-03T16:13:00;32.60;49.90
16408;DHT22;8313;49.894;8.084;2022-07-03T16:15:29;32.60;49.80
16408;DHT22;8313;49.894;8.084;2022-07-03T16:17:56;32.60;50.20
16408;DHT22;8313;49.894;8.084;2022-07-03T16:20:28;32.50;50.20
16408;DHT22;8313;49.894;8.084;2022-07-03T16:23:02;32.50;50.30
16408;DHT22;8313;49.894;8.084;2022-07-03T16:25:32;32.40;50.40
16408;DHT22;8313;49.894;8.084;2022-07-03T16:28:04;32.40;50.60
16408;DHT22;8313;49.894;8.084;2022-07-03T16:30:31;32.50;50.90
16408;DHT22;8313;49.894;8.084;2022-07-03T16:32:56;32.50;50.70
16408;DHT22;8313;49.894;8.084;2022-07-03T16:38:08;32.40;50.80
16408;DHT22;8313;49.894;8.084;2022-07-03T16:40:36;32.40;50.70
16408;DHT22;8313;49.894;8.084;2022-07-03T16:43:04;32.40;50.80
16408;DHT22;8313;49.894;8.084;2022-07-03T16:45:32;32.30;50.60
16408;DHT22;8313;49.894;8.084;2022-07-03T16:48:10;32.20;50.40
16408;DHT22;8313;49.894;8.084;2022-07-03T16:50:47;32.20;50.60
16408;DHT22;8313;49.894;8.084;2022-07-03T16:53:17;32.10;50.40
16408;DHT22;8313;49.894;8.084;2022-07-03T16:55:43;32.10;50.70
16408;DHT22;8313;49.894;8.084;2022-07-03T16:58:09;32.10;50.70
16408;DHT22;8313;49.894;8.084;2022-07-03T17:00:36;32.10;50.70
16408;DHT22;8313;49.894;8.084;2022-07-03T17:03:04;32.10;51.00
16408;DHT22;8313;49.894;8.084;2022-07-03T17:05:30;32.00;51.10
16408;DHT22;8313;49.894;8.084;2022-07-03T17:07:58;32.00;50.80
16408;DHT22;8313;49.894;8.084;2022-07-03T17:10:24;32.00;50.80
16408;DHT22;8313;49.894;8.084;2022-07-03T17:12:53;32.00;50.90
16408;DHT22;8313;49.894;8.084;2022-07-03T17:15:20;31.90;50.60
16408;DHT22;8313;49.894;8.084;2022-07-03T17:18:02;31.90;50.60
16408;DHT22;8313;49.894;8.084;2022-07-03T17:20:31;31.90;50.80
16408;DHT22;8313;49.894;8.084;2022-07-03T17:25:45;31.90;51.10
16408;DHT22;8313;49.894;8.084;2022-07-03T17:28:15;31.80;50.90
16408;DHT22;8313;49.894;8.084;2022-07-03T17:30:56;31.80;50.90